createdAt,value
2023-02-04T00:00:41.788Z,102980.91
2023-02-04T00:03:08.168Z,102977.97
2023-02-04T00:05:34.578Z,102979.97
2023-02-04T00:08:00.977Z,102978.06
2023-02-04T00:10:28.896Z,102981.22
2023-02-04T00:12:55.460Z,102976.47
2023-02-04T00:15:21.771Z,102970.00
2023-02-04T00:17:48.071Z,102971.91
2023-02-04T00:20:14.568Z,102974.06
2023-02-04T00:22:41.139Z,102966.38
2023-02-04T00:25:07.855Z,102974.91
2023-02-04T00:27:35.662Z,102971.94
2023-02-04T00:30:02.027Z,102973.56
2023-02-04T00:32:28.409Z,102975.63
2023-02-04T00:34:54.713Z,102974.91
2023-02-04T00:37:21.042Z,102980.66
2023-02-04T00:39:47.364Z,102969.88
2023-02-04T00:42:13.704Z,102984.69
2023-02-04T00:44:41.385Z,102985.06
2023-02-04T00:47:07.900Z,102988.06
2023-02-04T00:49:34.341Z,102989.69
2023-02-04T00:52:00.682Z,102990.28
2023-02-04T00:54:27.188Z,102998.06
2023-02-04T00:56:53.491Z,102998.84
2023-02-04T00:59:19.789Z,102996.78
2023-02-04T01:01:47.450Z,103009.31
2023-02-04T01:04:13.827Z,102994.31
2023-02-04T01:06:40.177Z,102997.25
2023-02-04T01:09:06.722Z,103003.41
2023-02-04T01:11:33.067Z,103001.22
2023-02-04T01:13:59.653Z,103000.16
2023-02-04T01:16:26.280Z,102994.72
2023-02-04T01:18:54.197Z,102997.78
2023-02-04T01:21:20.485Z,102998.88
2023-02-04T01:23:46.819Z,102995.19
2023-02-04T01:26:13.163Z,103003.56
2023-02-04T01:28:39.451Z,103009.84
2023-02-04T01:31:05.784Z,103018.97
2023-02-04T01:33:32.119Z,103017.41
2023-02-04T01:35:59.760Z,103023.63
2023-02-04T01:38:26.262Z,103026.53
2023-02-04T01:40:54.406Z,103025.13
2023-02-04T01:43:21.163Z,103026.78
2023-02-04T01:45:47.788Z,103025.41
2023-02-04T01:48:14.319Z,103029.19
2023-02-04T01:50:40.602Z,103033.25
2023-02-04T01:53:09.159Z,103034.31
2023-02-04T01:55:35.503Z,103041.66
2023-02-04T01:58:01.836Z,103045.53
2023-02-04T02:00:29.061Z,103043.97
2023-02-04T02:02:55.694Z,103056.47
2023-02-04T02:05:23.562Z,103062.91
2023-02-04T02:07:51.004Z,103056.94
2023-02-04T02:10:18.848Z,103046.44
2023-02-04T02:12:45.754Z,103050.00
2023-02-04T02:15:12.830Z,103051.78
2023-02-04T02:17:39.752Z,103050.78
2023-02-04T02:20:06.322Z,103050.00
2023-02-04T02:22:35.508Z,103058.25
2023-02-04T02:25:07.707Z,103058.38
2023-02-04T02:27:34.043Z,103069.88
2023-02-04T02:30:00.382Z,103066.53
2023-02-04T02:32:26.813Z,103078.09
2023-02-04T02:34:53.216Z,103072.88
2023-02-04T02:37:19.516Z,103076.53
2023-02-04T02:39:46.035Z,103072.19
2023-02-04T02:42:15.067Z,103067.06
2023-02-04T02:44:41.862Z,103069.00
2023-02-04T02:47:12.378Z,103066.50
2023-02-04T02:49:39.309Z,103071.84
2023-02-04T02:52:05.702Z,103074.53
2023-02-04T02:54:32.506Z,103075.50
2023-02-04T02:56:59.320Z,103084.34
2023-02-04T02:59:27.027Z,103080.84
2023-02-04T03:01:54.714Z,103079.13
2023-02-04T03:04:21.737Z,103084.34
2023-02-04T03:06:48.311Z,103083.56
2023-02-04T03:09:14.639Z,103089.69
2023-02-04T03:11:41.057Z,103090.63
2023-02-04T03:14:07.436Z,103094.09
2023-02-04T03:16:35.975Z,103087.97
2023-02-04T03:19:02.898Z,103086.19
2023-02-04T03:21:29.286Z,103093.19
2023-02-04T03:23:56.140Z,103095.75
2023-02-04T03:26:22.522Z,103089.69
2023-02-04T03:28:48.941Z,103090.63
2023-02-04T03:31:15.338Z,103094.19
2023-02-04T03:33:43.051Z,103097.75
2023-02-04T03:36:09.739Z,103089.97
2023-02-04T03:38:36.115Z,103096.25
2023-02-04T03:41:02.454Z,103099.88
2023-02-04T03:43:28.854Z,103101.75
2023-02-04T03:45:55.179Z,103107.28
2023-02-04T03:48:21.517Z,103108.31
2023-02-04T03:50:49.250Z,103110.22
2023-02-04T03:53:15.579Z,103112.16
2023-02-04T03:55:41.906Z,103110.38
2023-02-04T03:58:08.192Z,103110.31
2023-02-04T04:00:34.496Z,103115.66
2023-02-04T04:03:00.898Z,103118.72
2023-02-04T04:05:27.328Z,103127.50
2023-02-04T04:07:55.002Z,103118.28
2023-02-04T04:10:21.420Z,103122.75
2023-02-04T04:12:47.730Z,103120.34
2023-02-04T04:15:14.048Z,103119.50
2023-02-04T04:17:40.390Z,103121.34
2023-02-04T04:20:07.107Z,103123.16
2023-02-04T04:22:33.439Z,103131.09
2023-02-04T04:25:01.091Z,103126.72
2023-02-04T04:27:27.394Z,103122.19
2023-02-04T04:29:53.682Z,103124.69
2023-02-04T04:32:19.999Z,103128.19
2023-02-04T04:34:46.317Z,103126.41
2023-02-04T04:37:12.651Z,103122.97
2023-02-04T04:39:38.948Z,103136.09
2023-02-04T04:42:06.613Z,103135.31
2023-02-04T04:44:32.927Z,103131.69
2023-02-04T04:46:59.281Z,103131.69
2023-02-04T04:49:25.680Z,103131.81
2023-02-04T04:51:51.970Z,103126.53
2023-02-04T04:54:18.288Z,103129.09
2023-02-04T04:56:44.606Z,103130.72
2023-02-04T04:59:12.329Z,103141.09
2023-02-04T05:01:38.737Z,103141.94
2023-02-04T05:04:05.167Z,103139.03
2023-02-04T05:06:31.472Z,103132.69
2023-02-04T05:08:57.762Z,103138.63
2023-02-04T05:11:24.075Z,103141.00
2023-02-04T05:13:50.382Z,103143.44
2023-02-04T05:16:18.049Z,103149.50
2023-02-04T05:18:44.354Z,103148.50
2023-02-04T05:21:10.682Z,103148.31
2023-02-04T05:23:37.039Z,103155.28
2023-02-04T05:26:03.444Z,103160.34
2023-02-04T05:28:29.806Z,103166.28
2023-02-04T05:30:56.196Z,103168.84
2023-02-04T05:33:23.888Z,103172.34
2023-02-04T05:35:50.173Z,103166.91
2023-02-04T05:38:16.486Z,103166.84
2023-02-04T05:40:42.782Z,103169.41
2023-02-04T05:43:09.139Z,103167.63
2023-02-04T05:45:35.511Z,103166.84
2023-02-04T05:48:01.879Z,103178.25
2023-02-04T05:50:29.780Z,103178.06
2023-02-04T05:52:56.279Z,103187.69
2023-02-04T05:55:22.627Z,103184.25
2023-02-04T05:57:48.967Z,103181.63
2023-02-04T06:00:15.305Z,103178.97
2023-02-04T06:02:41.653Z,103177.19
2023-02-04T06:05:08.204Z,103187.81
2023-02-04T06:07:35.926Z,103188.75
2023-02-04T06:10:02.313Z,103198.44
2023-02-04T06:12:28.734Z,103203.66
2023-02-04T06:14:55.025Z,103199.31
2023-02-04T06:17:21.355Z,103198.38
2023-02-04T06:19:47.704Z,103200.09
2023-02-04T06:22:14.035Z,103196.59
2023-02-04T06:24:41.690Z,103208.88
2023-02-04T06:27:08.032Z,103207.88
2023-02-04T06:29:34.355Z,103221.78
2023-02-04T06:32:00.725Z,103209.38
2023-02-04T06:34:27.062Z,103215.56
2023-02-04T06:36:53.378Z,103219.06
2023-02-04T06:39:19.657Z,103224.34
2023-02-04T06:41:47.352Z,103230.47
2023-02-04T06:44:13.689Z,103230.47
2023-02-04T06:46:39.996Z,103235.28
2023-02-04T06:49:06.299Z,103234.78
2023-02-04T06:51:32.615Z,103240.91
2023-02-04T06:53:58.898Z,103244.53
2023-02-04T06:56:25.206Z,103248.25
2023-02-04T06:58:52.853Z,103250.63
2023-02-04T07:01:19.230Z,103253.38
2023-02-04T07:03:45.563Z,103250.75
2023-02-04T07:06:11.837Z,103244.34
2023-02-04T07:08:38.135Z,103252.34
2023-02-04T07:11:04.534Z,103257.38
2023-02-04T07:13:30.840Z,103262.09
2023-02-04T07:15:58.556Z,103266.72
2023-02-04T07:18:24.862Z,103269.34
2023-02-04T07:20:51.157Z,103276.88
2023-02-04T07:23:17.488Z,103263.03
2023-02-04T07:25:43.786Z,103266.53
2023-02-04T07:28:10.139Z,103264.16
2023-02-04T07:30:36.648Z,103274.50
2023-02-04T07:33:04.362Z,103270.94
2023-02-04T07:35:30.697Z,103273.56
2023-02-04T07:37:57.026Z,103276.16
2023-02-04T07:40:23.300Z,103277.22
2023-02-04T07:42:49.608Z,103282.50
2023-02-04T07:45:16.138Z,103287.75
2023-02-04T07:47:42.478Z,103291.13
2023-02-04T07:50:10.247Z,103294.56
2023-02-04T07:52:36.545Z,103298.88
2023-02-04T07:55:03.150Z,103298.69
2023-02-04T07:57:29.472Z,103298.50
2023-02-04T07:59:55.812Z,103294.22
2023-02-04T08:02:22.301Z,103292.50
2023-02-04T08:04:48.654Z,103296.78
2023-02-04T08:07:16.444Z,103293.22
2023-02-04T08:09:42.777Z,103307.91
2023-02-04T08:12:09.066Z,103315.72
2023-02-04T08:14:35.353Z,103310.22
2023-02-04T08:17:01.680Z,103312.72
2023-02-04T08:19:27.981Z,103308.22
2023-02-04T08:21:54.276Z,103318.66
2023-02-04T08:24:21.901Z,103317.59
2023-02-04T08:26:48.201Z,103325.41
2023-02-04T08:29:14.509Z,103316.50
2023-02-04T08:31:40.974Z,103330.63
2023-02-04T08:34:07.378Z,103333.16
2023-02-04T08:36:33.748Z,103333.94
2023-02-04T08:39:00.119Z,103340.78
2023-02-04T08:41:27.788Z,103344.22
2023-02-04T08:43:54.115Z,103344.16
2023-02-04T08:46:20.472Z,103347.59
2023-02-04T08:48:46.779Z,103345.94
2023-02-04T08:51:13.109Z,103339.72
2023-02-04T08:53:39.455Z,103340.38
2023-02-04T08:56:06.211Z,103346.53
2023-02-04T08:58:33.861Z,103342.00
2023-02-04T09:01:00.261Z,103342.72
2023-02-04T09:03:26.587Z,103349.59
2023-02-04T09:05:52.889Z,103344.06
2023-02-04T09:08:19.177Z,103350.06
2023-02-04T09:10:45.493Z,103344.72
2023-02-04T09:13:11.831Z,103351.59
2023-02-04T09:15:39.494Z,103356.78
2023-02-04T09:18:05.806Z,103358.44
2023-02-04T09:20:32.435Z,103363.50
2023-02-04T09:22:59.008Z,103369.34
2023-02-04T09:25:25.410Z,103361.28
2023-02-04T09:27:51.803Z,103361.56
2023-02-04T09:30:18.136Z,103363.19
2023-02-04T09:32:45.789Z,103361.34
2023-02-04T09:35:12.122Z,103370.06
2023-02-04T09:37:38.434Z,103369.69
2023-02-04T09:40:05.145Z,103368.69
2023-02-04T09:42:31.486Z,103369.31
2023-02-04T09:44:57.846Z,103363.03
2023-02-04T09:47:25.247Z,103375.25
2023-02-04T09:49:52.935Z,103376.72
2023-02-04T09:52:19.514Z,103372.06
2023-02-04T09:54:46.072Z,103373.78
2023-02-04T09:57:16.745Z,103379.00
2023-02-04T09:59:44.037Z,103382.19
2023-02-04T10:02:19.856Z,103378.47
2023-02-04T10:04:46.176Z,103381.06
2023-02-04T10:07:22.829Z,103379.16
2023-02-04T10:09:49.185Z,103388.59
2023-02-04T10:12:15.722Z,103384.16
2023-02-04T10:14:42.348Z,103391.97
2023-02-04T10:17:09.935Z,103400.50
2023-02-04T10:19:36.415Z,103395.78
2023-02-04T10:22:03.630Z,103404.41
2023-02-04T10:24:31.316Z,103395.47
2023-02-04T10:27:07.021Z,103395.94
2023-02-04T10:29:33.350Z,103401.72
2023-02-04T10:31:59.750Z,103395.97
2023-02-04T10:34:33.937Z,103396.19
2023-02-04T10:37:11.011Z,103393.66
2023-02-04T10:39:42.045Z,103389.34
2023-02-04T10:42:19.642Z,103397.06
2023-02-04T10:44:46.609Z,103396.28
2023-02-04T10:47:16.157Z,103410.69
2023-02-04T10:49:51.327Z,103409.91
2023-02-04T10:52:19.810Z,103400.16
2023-02-04T10:54:47.649Z,103392.06
2023-02-04T10:57:17.019Z,103395.16
2023-02-04T10:59:43.824Z,103393.91
2023-02-04T11:02:25.989Z,103395.69
2023-02-04T11:04:53.022Z,103394.41
2023-02-04T11:07:19.591Z,103398.56
2023-02-04T11:09:48.725Z,103396.56
2023-02-04T11:12:20.485Z,103398.97
2023-02-04T11:14:54.828Z,103399.41
2023-02-04T11:17:21.139Z,103396.44
2023-02-04T11:19:47.447Z,103405.31
2023-02-04T11:22:23.776Z,103404.28
2023-02-04T11:24:51.673Z,103389.16
2023-02-04T11:27:22.525Z,103394.03
2023-02-04T11:29:49.280Z,103397.00
2023-02-04T11:32:29.186Z,103395.91
2023-02-04T11:35:05.710Z,103390.59
2023-02-04T11:37:36.794Z,103393.84
2023-02-04T11:40:17.141Z,103389.31
2023-02-04T11:42:43.635Z,103401.19
2023-02-04T11:45:13.692Z,103386.13
2023-02-04T11:47:40.141Z,103386.75
2023-02-04T11:50:14.010Z,103385.03
2023-02-04T11:52:40.530Z,103381.06
2023-02-04T11:55:06.960Z,103380.41
2023-02-04T11:57:39.446Z,103386.13
2023-02-04T12:00:06.762Z,103383.31
2023-02-04T12:02:41.253Z,103387.38
2023-02-04T12:05:11.672Z,103387.78
2023-02-04T12:07:38.297Z,103384.88
2023-02-04T12:10:11.084Z,103390.59
2023-02-04T12:12:42.606Z,103392.06
2023-02-04T12:15:14.179Z,103385.38
2023-02-04T12:17:40.518Z,103383.31
2023-02-04T12:20:07.123Z,103386.53
2023-02-04T12:22:33.406Z,103391.84
2023-02-04T12:24:59.677Z,103389.97
2023-02-04T12:27:25.984Z,103391.41
2023-02-04T12:29:53.641Z,103388.59
2023-02-04T12:32:19.915Z,103388.41
2023-02-04T12:34:46.266Z,103394.50
2023-02-04T12:37:12.581Z,103388.31
2023-02-04T12:39:38.910Z,103393.47
2023-02-04T12:42:05.298Z,103402.78
2023-02-04T12:44:31.614Z,103397.47
2023-02-04T12:46:59.299Z,103404.31
2023-02-04T12:49:25.679Z,103407.91
2023-02-04T12:51:52.018Z,103400.72
2023-02-04T12:54:18.338Z,103400.13
2023-02-04T12:56:44.674Z,103406.38
2023-02-04T12:59:11.014Z,103405.72
2023-02-04T13:01:37.334Z,103403.50
2023-02-04T13:04:05.216Z,103401.59
2023-02-04T13:06:31.666Z,103396.63
2023-02-04T13:08:57.965Z,103401.28
2023-02-04T13:11:24.294Z,103406.66
2023-02-04T13:13:50.639Z,103408.38
2023-02-04T13:16:16.965Z,103406.41
2023-02-04T13:18:43.331Z,103397.59
2023-02-04T13:21:11.004Z,103398.34
2023-02-04T13:23:37.300Z,103392.88
2023-02-04T13:26:03.671Z,103387.56
2023-02-04T13:28:29.995Z,103385.06
2023-02-04T13:30:56.364Z,103379.00
2023-02-04T13:33:22.685Z,103387.91
2023-02-04T13:35:49.038Z,103381.81
2023-02-04T13:38:16.915Z,103374.81
2023-02-04T13:40:43.254Z,103373.84
2023-02-04T13:43:09.695Z,103385.25
2023-02-04T13:45:36.204Z,103386.19
2023-02-04T13:48:02.695Z,103379.00
2023-02-04T13:50:29.022Z,103378.78
2023-02-04T13:52:55.327Z,103385.41
2023-02-04T13:55:23.077Z,103377.91
2023-02-04T13:57:49.371Z,103368.81
2023-02-04T14:00:15.757Z,103371.09
2023-02-04T14:02:42.057Z,103368.09
2023-02-04T14:05:08.354Z,103369.66
2023-02-04T14:07:34.643Z,103371.97
2023-02-04T14:10:01.064Z,103367.13
2023-02-04T14:12:28.743Z,103366.94
2023-02-04T14:14:55.062Z,103370.38
2023-02-04T14:17:21.417Z,103362.22
2023-02-04T14:19:47.716Z,103364.66
2023-02-04T14:22:14.004Z,103371.97
2023-02-04T14:24:40.321Z,103366.44
2023-02-04T14:27:06.645Z,103369.19
2023-02-04T14:29:34.351Z,103365.63
2023-02-04T14:32:00.769Z,103372.16
2023-02-04T14:34:27.073Z,103367.41
2023-02-04T14:36:53.378Z,103376.72
2023-02-04T14:39:19.671Z,103379.81
2023-02-04T14:41:46.020Z,103377.16
2023-02-04T14:44:12.337Z,103376.75
2023-02-04T14:46:40.016Z,103388.59
2023-02-04T14:49:06.309Z,103386.97
2023-02-04T14:51:32.659Z,103389.41
2023-02-04T14:53:58.981Z,103380.72
2023-02-04T14:56:25.267Z,103383.38
2023-02-04T14:58:51.594Z,103383.28
2023-02-04T15:01:17.923Z,103384.09
2023-02-04T15:03:45.617Z,103382.59
2023-02-04T15:06:11.931Z,103379.94
2023-02-04T15:08:38.254Z,103380.09
2023-02-04T15:11:04.803Z,103381.81
2023-02-04T15:13:31.108Z,103383.72
2023-02-04T15:15:57.445Z,103389.19
2023-02-04T15:18:24.041Z,103395.56
2023-02-04T15:20:51.655Z,103398.31
2023-02-04T15:23:17.943Z,103395.72
2023-02-04T15:25:44.221Z,103393.25
2023-02-04T15:28:12.187Z,103401.50
2023-02-04T15:30:38.812Z,103407.75
2023-02-04T15:33:05.197Z,103409.56
2023-02-04T15:35:31.520Z,103406.13
2023-02-04T15:37:59.174Z,103408.94
2023-02-04T15:40:25.577Z,103402.88
2023-02-04T15:42:51.877Z,103408.28
2023-02-04T15:45:18.224Z,103406.66
2023-02-04T15:47:44.545Z,103404.09
2023-02-04T15:50:10.946Z,103400.59
2023-02-04T15:52:37.319Z,103400.66
2023-02-04T15:55:05.278Z,103408.06
2023-02-04T15:57:31.602Z,103399.31
2023-02-04T15:59:57.955Z,103406.50
2023-02-04T16:02:24.323Z,103403.25
2023-02-04T16:04:50.662Z,103403.25
2023-02-04T16:07:17.009Z,103403.34
2023-02-04T16:09:43.302Z,103410.63
2023-02-04T16:12:10.971Z,103409.78
2023-02-04T16:14:37.330Z,103404.91
2023-02-04T16:17:03.674Z,103407.63
2023-02-04T16:19:29.979Z,103409.59
2023-02-04T16:21:56.290Z,103411.47
2023-02-04T16:24:22.633Z,103412.69
2023-02-04T16:26:48.947Z,103415.34
2023-02-04T16:29:16.586Z,103410.13
2023-02-04T16:31:42.959Z,103417.28
2023-02-04T16:34:09.259Z,103412.94
2023-02-04T16:36:36.446Z,103412.16
2023-02-04T16:39:02.782Z,103419.38
2023-02-04T16:41:29.074Z,103417.72
2023-02-04T16:43:55.432Z,103420.38
2023-02-04T16:46:23.253Z,103424.91
2023-02-04T16:48:49.565Z,103425.94
2023-02-04T16:51:15.865Z,103427.78
2023-02-04T16:53:42.193Z,103436.69
2023-02-04T16:56:08.528Z,103430.63
2023-02-04T16:58:34.863Z,103438.75
2023-02-04T17:01:01.186Z,103441.41
2023-02-04T17:03:28.932Z,103440.63
2023-02-04T17:05:55.287Z,103442.50
2023-02-04T17:08:30.616Z,103444.38
2023-02-04T17:10:56.944Z,103442.69
2023-02-04T17:13:23.312Z,103451.66
2023-02-04T17:15:49.686Z,103449.22
2023-02-04T17:18:16.011Z,103452.75
2023-02-04T17:20:43.719Z,103451.03
2023-02-04T17:23:10.540Z,103451.09
2023-02-04T17:25:36.829Z,103454.69
2023-02-04T17:28:03.214Z,103452.81
2023-02-04T17:30:29.608Z,103448.38
2023-02-04T17:32:55.938Z,103447.53
2023-02-04T17:35:22.258Z,103451.88
2023-02-04T17:37:49.884Z,103453.69
2023-02-04T17:40:16.352Z,103455.41
2023-02-04T17:42:42.681Z,103458.91
2023-02-04T17:45:10.516Z,103452.66
2023-02-04T17:47:37.279Z,103450.78
2023-02-04T17:50:04.564Z,103454.47
2023-02-04T17:52:31.038Z,103447.38
2023-02-04T17:54:59.172Z,103453.53
2023-02-04T17:57:25.511Z,103454.38
2023-02-04T17:59:52.043Z,103458.81
2023-02-04T18:02:22.438Z,103453.53
2023-02-04T18:04:49.156Z,103463.28
2023-02-04T18:07:15.493Z,103457.19
2023-02-04T18:09:41.883Z,103468.72
2023-02-04T18:12:13.929Z,103462.66
2023-02-04T18:14:42.645Z,103463.63
2023-02-04T18:17:10.264Z,103469.84
2023-02-04T18:19:37.309Z,103465.47
2023-02-04T18:22:06.014Z,103469.84
2023-02-04T18:24:34.171Z,103464.53
2023-02-04T18:27:01.709Z,103475.16
2023-02-04T18:29:31.724Z,103470.72
2023-02-04T18:31:59.772Z,103476.94
2023-02-04T18:34:28.040Z,103477.88
2023-02-04T18:36:54.709Z,103463.75
2023-02-04T18:39:24.718Z,103468.22
2023-02-04T18:41:51.229Z,103474.44
2023-02-04T18:44:26.094Z,103462.97
2023-02-04T18:46:54.251Z,103465.63
2023-02-04T18:49:22.834Z,103469.22
2023-02-04T18:51:49.547Z,103470.16
2023-02-04T18:54:33.526Z,103467.56
2023-02-04T18:57:18.481Z,103465.78
2023-02-04T18:59:44.835Z,103466.66
2023-02-04T19:02:32.860Z,103456.97
2023-02-04T19:05:13.323Z,103463.31
2023-02-04T19:07:40.424Z,103466.91
2023-02-04T19:10:24.210Z,103472.34
2023-02-04T19:12:52.907Z,103469.84
2023-02-04T19:15:29.995Z,103472.91
2023-02-04T19:17:57.683Z,103480.94
2023-02-04T19:20:25.660Z,103473.94
2023-02-04T19:22:53.874Z,103478.44
2023-02-04T19:25:25.439Z,103474.06
2023-02-04T19:27:53.683Z,103462.81
2023-02-04T19:30:40.428Z,103477.84
2023-02-04T19:33:13.880Z,103470.81
2023-02-04T19:35:44.331Z,103469.25
2023-02-04T19:38:22.836Z,103468.47
2023-02-04T19:40:51.252Z,103480.03
2023-02-04T19:43:19.822Z,103481.03
2023-02-04T19:45:46.344Z,103488.91
2023-02-04T19:48:20.538Z,103487.19
2023-02-04T19:50:51.725Z,103498.72
2023-02-04T19:53:19.740Z,103494.50
2023-02-04T19:55:46.536Z,103499.66
2023-02-04T19:58:16.057Z,103503.00
2023-02-04T20:00:44.343Z,103504.41
2023-02-04T20:03:14.812Z,103495.94
2023-02-04T20:05:41.302Z,103496.00
2023-02-04T20:08:24.223Z,103491.19
2023-02-04T20:10:50.562Z,103493.03
2023-02-04T20:13:18.989Z,103478.00
2023-02-04T20:15:45.284Z,103477.06
2023-02-04T20:18:14.152Z,103474.44
2023-02-04T20:20:42.237Z,103471.00
2023-02-04T20:23:23.042Z,103467.50
2023-02-04T20:25:49.452Z,103472.03
2023-02-04T20:28:17.814Z,103465.94
2023-02-04T20:30:44.616Z,103465.88
2023-02-04T20:33:22.501Z,103471.16
2023-02-04T20:36:19.185Z,103472.16
2023-02-04T20:38:47.199Z,103466.09
2023-02-04T20:41:15.867Z,103458.16
2023-02-04T20:43:42.779Z,103462.50
2023-02-04T20:46:13.807Z,103466.00
2023-02-04T20:48:40.398Z,103467.72
2023-02-04T20:51:15.400Z,103476.59
2023-02-04T20:53:47.435Z,103469.59
2023-02-04T20:56:25.357Z,103476.69
2023-02-04T20:58:53.945Z,103471.53
2023-02-04T21:01:24.760Z,103477.59
2023-02-04T21:03:51.140Z,103478.72
2023-02-04T21:06:21.385Z,103481.34
2023-02-04T21:08:49.287Z,103486.78
2023-02-04T21:11:15.663Z,103486.94
2023-02-04T21:13:43.387Z,103478.00
2023-02-04T21:16:09.817Z,103477.94
2023-02-04T21:18:36.183Z,103474.41
2023-02-04T21:21:02.638Z,103473.56
2023-02-04T21:23:29.004Z,103470.91
2023-02-04T21:25:55.281Z,103468.34
2023-02-04T21:28:21.705Z,103470.91
2023-02-04T21:30:49.534Z,103469.13
2023-02-04T21:33:17.086Z,103470.84
2023-02-04T21:35:43.608Z,103474.28
2023-02-04T21:38:09.957Z,103479.63
2023-02-04T21:40:37.121Z,103477.84
2023-02-04T21:43:04.045Z,103477.00
2023-02-04T21:45:30.737Z,103470.97
2023-02-04T21:47:58.937Z,103465.75
2023-02-04T21:50:25.270Z,103462.25
2023-02-04T21:52:51.597Z,103464.97
2023-02-04T21:55:19.063Z,103465.81
2023-02-04T21:57:45.442Z,103469.41
2023-02-04T22:00:12.236Z,103471.19
2023-02-04T22:02:38.536Z,103475.56
2023-02-04T22:05:06.786Z,103479.84
2023-02-04T22:07:33.272Z,103471.69
2023-02-04T22:09:59.647Z,103465.28
2023-02-04T22:12:25.935Z,103464.56
2023-02-04T22:14:52.265Z,103457.47
2023-02-04T22:17:18.575Z,103461.84
2023-02-04T22:19:44.857Z,103453.84
2023-02-04T22:22:12.570Z,103455.56
2023-02-04T22:24:38.893Z,103459.84
2023-02-04T22:27:05.387Z,103456.41
2023-02-04T22:29:31.706Z,103448.41
2023-02-04T22:31:58.044Z,103453.78
2023-02-04T22:34:24.417Z,103451.19
2023-02-04T22:36:50.839Z,103452.13
2023-02-04T22:39:18.494Z,103440.81
2023-02-04T22:41:44.928Z,103448.94
2023-02-04T22:44:11.248Z,103464.69
2023-02-04T22:46:37.584Z,103462.16
2023-02-04T22:49:03.896Z,103473.50
2023-02-04T22:51:30.226Z,103471.03
2023-02-04T22:53:56.571Z,103465.00
2023-02-04T22:56:24.344Z,103471.31
2023-02-04T22:58:52.694Z,103476.59
2023-02-04T23:01:19.286Z,103477.53
2023-02-04T23:03:45.707Z,103475.66
2023-02-04T23:06:12.048Z,103477.47
2023-02-04T23:08:38.459Z,103478.44
2023-02-04T23:11:04.965Z,103482.81
2023-02-04T23:13:32.804Z,103484.53
2023-02-04T23:15:59.192Z,103475.81
2023-02-04T23:18:25.555Z,103476.66
2023-02-04T23:20:51.877Z,103476.75
2023-02-04T23:23:18.530Z,103475.91
2023-02-04T23:25:45.217Z,103468.97
2023-02-04T23:28:11.651Z,103469.97
2023-02-04T23:30:39.384Z,103475.25
2023-02-04T23:33:05.750Z,103476.25
2023-02-04T23:35:32.586Z,103475.47
2023-02-04T23:37:59.162Z,103479.81
2023-02-04T23:40:25.441Z,103469.41
2023-02-04T23:42:51.801Z,103468.47
2023-02-04T23:45:18.187Z,103459.50
2023-02-04T23:47:45.997Z,103450.66
2023-02-04T23:50:12.349Z,103452.44
2023-02-04T23:52:39.734Z,103459.44
2023-02-04T23:55:06.475Z,103460.38
2023-02-04T23:57:32.958Z,103450.72
2023-02-04T23:59:59.288Z,103446.34
